createdAt,value
2018-11-13T00:02:23.824Z,1.25
2018-11-13T00:04:52.184Z,1.62
2018-11-13T00:07:20.552Z,1.80
2018-11-13T00:09:48.903Z,0.80
2018-11-13T00:12:17.264Z,1.40
2018-11-13T00:14:45.598Z,1.22
2018-11-13T00:17:13.965Z,1.25
2018-11-13T00:19:42.316Z,1.25
2018-11-13T00:22:10.668Z,1.72
2018-11-13T00:24:39.015Z,1.05
2018-11-13T00:27:07.429Z,2.27
2018-11-13T00:29:36.256Z,1.40
2018-11-13T00:32:05.025Z,1.37
2018-11-13T00:34:33.528Z,1.22
2018-11-13T00:37:01.890Z,1.55
2018-11-13T00:39:30.263Z,1.17
2018-11-13T00:41:58.600Z,1.35
2018-11-13T00:44:26.957Z,1.40
2018-11-13T00:46:55.293Z,0.72
2018-11-13T00:49:23.773Z,2.05
2018-11-13T00:51:52.008Z,1.32
2018-11-13T00:54:20.372Z,1.15
2018-11-13T00:56:48.712Z,1.00
2018-11-13T00:59:17.113Z,1.22
2018-11-13T01:01:45.441Z,1.00
2018-11-13T01:04:13.835Z,0.90
2018-11-13T01:06:42.165Z,1.05
2018-11-13T01:09:10.983Z,1.15
2018-11-13T01:11:39.542Z,1.15
2018-11-13T01:14:08.447Z,0.90
2018-11-13T01:16:37.115Z,1.00
2018-11-13T01:19:05.497Z,0.72
2018-11-13T01:21:33.852Z,1.52
2018-11-13T01:24:02.569Z,0.98
2018-11-13T01:26:30.581Z,0.88
2018-11-13T01:28:58.932Z,1.15
2018-11-13T01:31:27.274Z,0.98
2018-11-13T01:33:55.647Z,1.00
2018-11-13T01:36:23.985Z,0.85
2018-11-13T01:38:52.337Z,1.50
2018-11-13T01:41:20.668Z,1.52
2018-11-13T01:43:49.040Z,0.72
2018-11-13T01:46:17.387Z,1.22
2018-11-13T01:48:45.748Z,1.20
2018-11-13T01:51:14.083Z,0.60
2018-11-13T01:53:42.444Z,1.15
2018-11-13T01:56:10.888Z,1.17
2018-11-13T01:58:39.303Z,1.12
2018-11-13T02:01:07.669Z,0.80
2018-11-13T02:03:36.061Z,1.52
2018-11-13T02:06:04.959Z,0.62
2018-11-13T02:08:33.347Z,1.57
2018-11-13T02:11:01.736Z,1.32
2018-11-13T02:13:36.724Z,0.90
2018-11-13T02:16:05.736Z,1.07
2018-11-13T02:18:34.113Z,1.62
2018-11-13T02:21:06.120Z,1.10
2018-11-13T02:23:34.499Z,1.60
2018-11-13T02:26:02.848Z,1.00
2018-11-13T02:28:31.284Z,0.90
2018-11-13T02:31:01.340Z,1.00
2018-11-13T02:33:30.236Z,0.98
2018-11-13T02:35:58.602Z,0.85
2018-11-13T02:38:26.972Z,0.85
2018-11-13T02:40:55.363Z,1.37
2018-11-13T02:43:23.739Z,1.10
2018-11-13T02:45:52.116Z,1.35
2018-11-13T02:48:20.485Z,0.95
2018-11-13T02:50:49.553Z,1.07
2018-11-13T02:53:17.900Z,0.93
2018-11-13T02:55:46.296Z,0.82
2018-11-13T02:58:14.652Z,1.62
2018-11-13T03:00:43.066Z,1.02
2018-11-13T03:03:11.453Z,1.47
2018-11-13T03:05:39.864Z,1.95
2018-11-13T03:08:08.212Z,1.82
2018-11-13T03:10:36.604Z,2.22
2018-11-13T03:13:05.148Z,1.65
2018-11-13T03:15:33.533Z,1.40
2018-11-13T03:18:01.927Z,1.20
2018-11-13T03:20:30.321Z,1.07
2018-11-13T03:22:58.671Z,1.05
2018-11-13T03:25:27.109Z,2.17
2018-11-13T03:27:55.463Z,1.40
2018-11-13T03:30:25.036Z,0.75
2018-11-13T03:32:53.932Z,1.22
2018-11-13T03:35:22.335Z,0.98
2018-11-13T03:37:50.696Z,0.80
2018-11-13T03:40:19.162Z,0.78
2018-11-13T03:42:48.447Z,0.90
2018-11-13T03:45:17.166Z,1.67
2018-11-13T03:47:45.540Z,0.60
2018-11-13T03:50:18.842Z,0.70
2018-11-13T03:52:47.260Z,0.70
2018-11-13T03:55:16.300Z,0.65
2018-11-13T03:57:45.276Z,0.70
2018-11-13T04:00:15.825Z,0.60
2018-11-13T04:02:44.194Z,0.85
2018-11-13T04:05:13.812Z,0.50
2018-11-13T04:07:44.528Z,1.02
2018-11-13T04:10:14.168Z,0.57
2018-11-13T04:12:42.826Z,0.60
2018-11-13T04:15:13.093Z,0.50
2018-11-13T04:17:41.535Z,0.50
2018-11-13T04:20:12.649Z,0.80
2018-11-13T04:22:41.467Z,0.68
2018-11-13T04:25:09.837Z,0.60
2018-11-13T04:27:38.221Z,0.40
2018-11-13T04:30:08.308Z,0.78
2018-11-13T04:32:36.698Z,0.50
2018-11-13T04:35:06.156Z,0.40
2018-11-13T04:37:34.545Z,0.50
2018-11-13T04:40:03.528Z,0.45
2018-11-13T04:42:31.967Z,0.50
2018-11-13T04:45:00.310Z,0.60
2018-11-13T04:47:28.675Z,0.42
2018-11-13T04:49:57.022Z,0.40
2018-11-13T04:52:25.436Z,0.65
2018-11-13T04:54:53.809Z,0.50
2018-11-13T04:57:22.187Z,0.50
2018-11-13T04:59:50.520Z,0.40
2018-11-13T05:02:18.918Z,0.60
2018-11-13T05:04:47.284Z,1.00
2018-11-13T05:07:15.660Z,1.10
2018-11-13T05:09:44.014Z,1.00
2018-11-13T05:12:12.417Z,0.60
2018-11-13T05:14:40.903Z,0.75
2018-11-13T05:17:09.300Z,0.30
2018-11-13T05:19:37.642Z,0.57
2018-11-13T05:22:06.333Z,0.40
2018-11-13T05:24:34.687Z,0.40
2018-11-13T05:27:03.140Z,0.60
2018-11-13T05:29:31.489Z,0.65
2018-11-13T05:31:59.843Z,0.60
2018-11-13T05:34:28.180Z,0.40
2018-11-13T05:36:56.528Z,0.53
2018-11-13T05:39:24.848Z,0.82
2018-11-13T05:41:53.307Z,0.45
2018-11-13T05:44:21.557Z,0.80
2018-11-13T05:46:49.907Z,0.50
2018-11-13T05:49:18.220Z,0.60
2018-11-13T05:51:46.580Z,0.88
2018-11-13T05:54:14.901Z,0.60
2018-11-13T05:56:43.243Z,0.80
2018-11-13T05:59:11.557Z,0.40
2018-11-13T06:01:39.908Z,0.53
2018-11-13T06:04:08.245Z,0.75
2018-11-13T06:06:36.609Z,0.40
2018-11-13T06:09:06.756Z,0.85
2018-11-13T06:11:35.093Z,0.70
2018-11-13T06:14:03.614Z,0.90
2018-11-13T06:16:31.904Z,0.47
2018-11-13T06:19:00.272Z,0.47
2018-11-13T06:21:28.604Z,0.40
2018-11-13T06:23:56.961Z,0.40
2018-11-13T06:26:25.278Z,0.30
2018-11-13T06:28:53.620Z,0.72
2018-11-13T06:31:21.936Z,1.85
2018-11-13T06:33:50.311Z,0.40
2018-11-13T06:36:18.641Z,0.40
2018-11-13T06:38:47.063Z,0.93
2018-11-13T06:41:15.343Z,0.50
2018-11-13T06:43:43.696Z,0.55
2018-11-13T06:46:12.012Z,0.53
2018-11-13T06:48:40.360Z,0.50
2018-11-13T06:51:08.668Z,0.40
2018-11-13T06:53:49.256Z,0.30
2018-11-13T06:56:17.596Z,0.40
2018-11-13T06:58:45.956Z,0.72
2018-11-13T07:01:14.267Z,0.68
2018-11-13T07:03:42.614Z,0.40
2018-11-13T07:06:10.961Z,0.50
2018-11-13T07:08:39.332Z,0.40
2018-11-13T07:11:07.689Z,0.60
2018-11-13T07:13:36.068Z,0.60
2018-11-13T07:16:04.404Z,0.55
2018-11-13T07:18:32.826Z,0.47
2018-11-13T07:21:01.100Z,0.40
2018-11-13T07:23:29.469Z,0.40
2018-11-13T07:25:57.800Z,0.50
2018-11-13T07:28:26.160Z,0.45
2018-11-13T07:30:54.516Z,0.50
2018-11-13T07:33:22.872Z,0.70
2018-11-13T07:35:51.204Z,0.50
2018-11-13T07:38:19.559Z,0.57
2018-11-13T07:40:47.893Z,0.75
2018-11-13T07:43:16.256Z,0.75
2018-11-13T07:45:44.580Z,0.80
2018-11-13T07:48:12.949Z,0.50
2018-11-13T07:50:41.305Z,0.70
2018-11-13T07:53:09.672Z,0.50
2018-11-13T07:55:38.004Z,0.45
2018-11-13T07:58:06.367Z,0.50
2018-11-13T08:00:34.731Z,0.50
2018-11-13T08:03:14.334Z,0.40
2018-11-13T08:05:42.730Z,1.10
2018-11-13T08:08:11.093Z,0.45
2018-11-13T08:10:39.416Z,0.42
2018-11-13T08:13:07.867Z,0.40
2018-11-13T08:15:36.182Z,0.40
2018-11-13T08:18:04.551Z,0.45
2018-11-13T08:20:32.912Z,0.40
2018-11-13T08:23:01.249Z,0.50
2018-11-13T08:25:29.610Z,0.40
2018-11-13T08:27:57.954Z,0.40
2018-11-13T08:30:26.317Z,0.45
2018-11-13T08:32:54.645Z,0.65
2018-11-13T08:35:23.008Z,0.60
2018-11-13T08:37:51.341Z,0.40
2018-11-13T08:40:20.036Z,0.62
2018-11-13T08:42:48.368Z,0.50
2018-11-13T08:45:17.001Z,0.98
2018-11-13T08:47:45.424Z,0.70
2018-11-13T08:50:14.415Z,0.47
2018-11-13T08:52:43.641Z,0.65
2018-11-13T08:55:12.369Z,0.40
2018-11-13T08:57:40.712Z,0.40
2018-11-13T09:00:11.067Z,0.40
2018-11-13T09:02:39.729Z,0.70
2018-11-13T09:05:08.740Z,0.40
2018-11-13T09:07:37.035Z,0.50
2018-11-13T09:10:08.486Z,0.82
2018-11-13T09:12:36.840Z,0.40
2018-11-13T09:15:07.156Z,0.50
2018-11-13T09:17:35.473Z,0.62
2018-11-13T09:20:03.997Z,0.40
2018-11-13T09:22:32.312Z,0.50
2018-11-13T09:25:00.672Z,0.50
2018-11-13T09:27:28.992Z,0.40
2018-11-13T09:29:57.419Z,0.82
2018-11-13T09:32:25.720Z,0.40
2018-11-13T09:34:54.068Z,0.50
2018-11-13T09:37:22.419Z,0.40
2018-11-13T09:39:50.815Z,0.47
2018-11-13T09:42:19.136Z,0.50
2018-11-13T09:44:47.571Z,0.40
2018-11-13T09:47:15.844Z,0.50
2018-11-13T09:49:44.230Z,0.40
2018-11-13T09:52:12.545Z,1.52
2018-11-13T09:54:40.897Z,0.60
2018-11-13T09:57:09.262Z,0.50
2018-11-13T09:59:37.721Z,0.50
2018-11-13T10:02:06.577Z,0.40
2018-11-13T10:04:34.993Z,0.60
2018-11-13T10:07:02.765Z,0.40
2018-11-13T10:09:31.083Z,0.68
2018-11-13T10:11:59.426Z,0.40
2018-11-13T10:14:27.741Z,0.47
2018-11-13T10:16:56.092Z,0.40
2018-11-13T10:19:24.416Z,0.40
2018-11-13T10:21:52.772Z,0.50
2018-11-13T10:24:21.097Z,0.50
2018-11-13T10:26:49.476Z,0.50
2018-11-13T10:29:17.789Z,0.40
2018-11-13T10:31:46.144Z,0.40
2018-11-13T10:34:14.468Z,0.40
2018-11-13T10:36:42.865Z,0.40
2018-11-13T10:39:11.571Z,0.40
2018-11-13T10:41:39.943Z,0.47
2018-11-13T10:44:08.307Z,0.55
2018-11-13T10:46:37.043Z,0.30
2018-11-13T10:49:05.636Z,0.60
2018-11-13T10:51:34.010Z,0.50
2018-11-13T10:54:02.333Z,0.50
2018-11-13T10:56:30.722Z,0.62
2018-11-13T10:58:59.071Z,0.40
2018-11-13T11:01:32.984Z,0.68
2018-11-13T11:04:07.435Z,0.57
2018-11-13T11:06:35.836Z,0.45
2018-11-13T11:09:06.500Z,0.78
2018-11-13T11:11:34.905Z,0.40
2018-11-13T11:14:03.381Z,0.40
2018-11-13T11:16:31.620Z,0.53
2018-11-13T11:19:00.093Z,0.50
2018-11-13T11:21:28.372Z,0.50
2018-11-13T11:23:56.742Z,0.60
2018-11-13T11:26:25.088Z,0.30
2018-11-13T11:28:53.423Z,0.50
2018-11-13T11:31:21.797Z,0.50
2018-11-13T11:33:50.114Z,0.40
2018-11-13T11:36:18.481Z,0.40
2018-11-13T11:38:46.896Z,0.60
2018-11-13T11:41:15.165Z,0.40
2018-11-13T11:43:43.483Z,0.60
2018-11-13T11:46:11.844Z,0.45
2018-11-13T11:48:40.208Z,0.40
2018-11-13T11:51:08.583Z,0.53
2018-11-13T11:53:36.943Z,0.70
2018-11-13T11:56:05.385Z,0.40
2018-11-13T11:58:33.703Z,0.60
2018-11-13T12:01:02.028Z,0.40
2018-11-13T12:03:30.400Z,0.60
2018-11-13T12:05:58.718Z,0.60
2018-11-13T12:08:27.084Z,0.50
2018-11-13T12:10:55.491Z,0.50
2018-11-13T12:13:23.851Z,0.70
2018-11-13T12:15:52.172Z,1.30
2018-11-13T12:18:20.532Z,0.75
2018-11-13T12:20:48.960Z,1.10
2018-11-13T12:23:17.341Z,0.62
2018-11-13T12:25:45.704Z,0.40
2018-11-13T12:28:14.044Z,0.68
2018-11-13T12:30:42.389Z,0.70
2018-11-13T12:33:10.808Z,0.40
2018-11-13T12:35:39.124Z,0.60
2018-11-13T12:38:07.494Z,0.50
2018-11-13T12:40:35.878Z,0.47
2018-11-13T12:43:04.196Z,1.00
2018-11-13T12:45:32.524Z,0.57
2018-11-13T12:48:00.907Z,0.50
2018-11-13T12:50:34.513Z,0.82
2018-11-13T12:53:02.872Z,0.47
2018-11-13T12:55:31.223Z,0.50
2018-11-13T12:57:59.568Z,0.62
2018-11-13T13:00:27.888Z,0.50
2018-11-13T13:02:56.241Z,0.40
2018-11-13T13:05:24.561Z,0.80
2018-11-13T13:07:52.909Z,0.50
2018-11-13T13:10:21.892Z,0.40
2018-11-13T13:12:50.255Z,0.50
2018-11-13T13:15:18.997Z,0.40
2018-11-13T13:17:47.375Z,0.40
2018-11-13T13:20:18.638Z,0.40
2018-11-13T13:22:47.720Z,0.50
2018-11-13T13:25:17.104Z,0.45
2018-11-13T13:27:45.450Z,0.40
2018-11-13T13:30:17.859Z,0.42
2018-11-13T13:32:46.772Z,0.50
2018-11-13T13:35:36.899Z,0.40
2018-11-13T13:38:06.567Z,0.40
2018-11-13T13:40:34.925Z,0.40
2018-11-13T13:43:03.279Z,0.40
2018-11-13T13:45:31.640Z,0.40
2018-11-13T13:48:00.008Z,0.40
2018-11-13T13:50:28.347Z,0.30
2018-11-13T13:52:56.948Z,0.40
2018-11-13T13:55:27.102Z,0.30
2018-11-13T13:57:55.460Z,0.60
2018-11-13T14:00:24.030Z,0.40
2018-11-13T14:02:52.164Z,0.40
2018-11-13T14:05:21.069Z,0.40
2018-11-13T14:07:49.460Z,0.40
2018-11-13T14:10:17.810Z,0.40
2018-11-13T14:12:46.163Z,0.40
2018-11-13T14:15:14.556Z,0.50
2018-11-13T14:17:42.913Z,0.55
2018-11-13T14:20:16.466Z,0.60
2018-11-13T14:22:44.838Z,0.40
2018-11-13T14:25:13.844Z,0.40
2018-11-13T14:27:42.373Z,0.40
2018-11-13T14:30:19.184Z,0.50
2018-11-13T14:32:48.349Z,0.47
2018-11-13T14:35:16.902Z,0.60
2018-11-13T14:37:45.303Z,0.53
2018-11-13T14:40:19.629Z,0.45
2018-11-13T14:42:48.327Z,0.50
2018-11-13T14:45:17.511Z,0.40
2018-11-13T14:47:46.596Z,0.60
2018-11-13T14:50:16.704Z,0.30
2018-11-13T14:52:45.546Z,0.35
2018-11-13T14:55:19.370Z,0.40
2018-11-13T14:57:47.971Z,0.60
2018-11-13T15:00:20.221Z,0.40
2018-11-13T15:02:48.984Z,0.40
2018-11-13T15:05:18.573Z,0.40
2018-11-13T15:07:48.110Z,0.40
2018-11-13T15:10:19.777Z,0.53
2018-11-13T15:12:48.104Z,0.50
2018-11-13T15:15:16.498Z,0.45
2018-11-13T15:17:44.820Z,0.53
2018-11-13T15:20:15.628Z,0.60
2018-11-13T15:22:44.784Z,0.50
2018-11-13T15:25:15.388Z,0.45
2018-11-13T15:27:44.727Z,0.50
2018-11-13T15:30:17.427Z,0.40
2018-11-13T15:32:47.640Z,0.40
2018-11-13T15:35:16.029Z,0.40
2018-11-13T15:37:44.356Z,0.40
2018-11-13T15:40:19.341Z,0.40
2018-11-13T15:42:47.671Z,0.50
2018-11-13T15:45:16.892Z,0.40
2018-11-13T15:47:46.121Z,0.40
2018-11-13T15:50:17.897Z,0.40
2018-11-13T15:52:46.264Z,2.00
2018-11-13T15:55:15.264Z,1.00
2018-11-13T15:57:44.219Z,0.55
2018-11-13T16:00:19.001Z,0.80
2018-11-13T16:02:47.476Z,0.53
2018-11-13T16:05:36.752Z,0.40
2018-11-13T16:08:06.004Z,0.40
2018-11-13T16:10:34.431Z,0.80
2018-11-13T16:13:02.928Z,0.40
2018-11-13T16:15:31.922Z,0.60
2018-11-13T16:18:01.488Z,0.50
2018-11-13T16:20:29.879Z,1.92
2018-11-13T16:22:58.231Z,0.55
2018-11-13T16:25:26.992Z,0.98
2018-11-13T16:27:55.375Z,1.55
2018-11-13T16:30:25.143Z,0.72
2018-11-13T16:32:53.587Z,0.60
2018-11-13T16:35:23.051Z,0.70
2018-11-13T16:37:52.187Z,0.65
2018-11-13T16:40:21.962Z,0.70
2018-11-13T16:42:50.349Z,0.60
2018-11-13T16:45:19.950Z,0.60
2018-11-13T16:47:48.305Z,0.78
2018-11-13T16:50:20.525Z,0.50
2018-11-13T16:52:48.876Z,0.70
2018-11-13T16:55:22.565Z,0.57
2018-11-13T16:57:51.724Z,0.60
2018-11-13T17:00:20.562Z,0.70
2018-11-13T17:02:48.922Z,1.45
2018-11-13T17:05:18.205Z,0.90
2018-11-13T17:07:46.600Z,0.70
2018-11-13T17:10:17.668Z,0.50
2018-11-13T17:12:46.308Z,0.80
2018-11-13T17:15:16.707Z,1.42
2018-11-13T17:17:45.673Z,1.10
2018-11-13T17:20:14.555Z,2.05
2018-11-13T17:22:43.411Z,1.70
2018-11-13T17:25:13.169Z,1.60
2018-11-13T17:27:42.728Z,1.85
2018-11-13T17:30:19.255Z,1.98
2018-11-13T17:32:46.665Z,0.90
2018-11-13T17:35:16.405Z,0.93
2018-11-13T17:37:45.415Z,1.35
2018-11-13T17:40:15.856Z,1.00
2018-11-13T17:42:45.003Z,0.40
2018-11-13T17:45:30.777Z,0.90
2018-11-13T17:47:59.176Z,0.80
2018-11-13T17:50:32.796Z,1.10
2018-11-13T17:53:01.162Z,1.00
2018-11-13T17:55:29.644Z,0.70
2018-11-13T17:57:59.652Z,1.87
2018-11-13T18:00:32.009Z,1.65
2018-11-13T18:03:00.731Z,2.35
2018-11-13T18:05:29.647Z,3.08
2018-11-13T18:07:59.032Z,1.75
2018-11-13T18:10:28.235Z,1.42
2018-11-13T18:12:56.628Z,0.85
2018-11-13T18:15:26.233Z,1.25
2018-11-13T18:17:54.573Z,0.60
2018-11-13T18:20:24.413Z,0.80
2018-11-13T18:22:52.751Z,1.05
2018-11-13T18:25:21.112Z,1.10
2018-11-13T18:27:50.801Z,1.42
2018-11-13T18:30:21.793Z,2.05
2018-11-13T18:32:51.090Z,1.82
2018-11-13T18:35:21.628Z,3.60
2018-11-13T18:37:50.770Z,1.55
2018-11-13T18:40:20.071Z,1.30
2018-11-13T18:43:06.416Z,1.15
2018-11-13T18:45:36.270Z,1.95
2018-11-13T18:48:04.729Z,0.88
2018-11-13T18:50:35.473Z,1.12
2018-11-13T18:53:03.955Z,2.02
2018-11-13T18:55:32.377Z,1.85
2018-11-13T18:58:01.160Z,1.17
2018-11-13T19:00:30.718Z,1.60
2018-11-13T19:02:59.979Z,1.25
2018-11-13T19:05:28.607Z,1.27
2018-11-13T19:07:57.256Z,0.95
2018-11-13T19:10:35.814Z,1.20
2018-11-13T19:13:06.143Z,1.77
2018-11-13T19:15:36.697Z,1.07
2018-11-13T19:18:05.985Z,2.47
2018-11-13T19:20:34.285Z,0.80
2018-11-13T19:23:02.682Z,1.50
2018-11-13T19:25:32.133Z,0.78
2018-11-13T19:28:00.973Z,0.98
2018-11-13T19:30:29.377Z,1.75
2018-11-13T19:32:57.756Z,1.10
2018-11-13T19:35:26.429Z,1.10
2018-11-13T19:37:54.784Z,1.25
2018-11-13T19:40:26.208Z,1.87
2018-11-13T19:42:55.539Z,0.95
2018-11-13T19:45:24.002Z,0.70
2018-11-13T19:47:52.479Z,1.17
2018-11-13T19:50:25.366Z,0.90
2018-11-13T19:52:53.669Z,0.68
2018-11-13T19:55:22.532Z,0.95
2018-11-13T19:57:50.969Z,1.02
2018-11-13T20:00:20.517Z,0.65
2018-11-13T20:02:50.186Z,1.00
2018-11-13T20:05:18.545Z,1.70
2018-11-13T20:07:47.705Z,2.22
2018-11-13T20:10:25.592Z,0.98
2018-11-13T20:12:56.012Z,2.10
2018-11-13T20:15:25.432Z,1.57
2018-11-13T20:17:54.028Z,1.70
2018-11-13T20:20:23.819Z,1.30
2018-11-13T20:22:53.105Z,1.15
2018-11-13T20:25:26.748Z,1.55
2018-11-13T20:27:55.207Z,1.20
2018-11-13T20:30:26.780Z,1.27
2018-11-13T20:32:55.214Z,1.05
2018-11-13T20:35:23.559Z,3.52
2018-11-13T20:37:52.696Z,1.85
2018-11-13T20:40:23.174Z,1.40
2018-11-13T20:42:52.908Z,1.60
2018-11-13T20:45:21.272Z,1.90
2018-11-13T20:47:49.641Z,1.10
2018-11-13T20:50:20.379Z,1.20
2018-11-13T20:52:48.814Z,1.57
2018-11-13T20:55:17.332Z,1.80
2018-11-13T20:57:45.704Z,2.62
2018-11-13T21:00:16.703Z,0.80
2018-11-13T21:02:45.116Z,1.10
2018-11-13T21:05:13.735Z,1.40
2018-11-13T21:07:42.189Z,3.00
2018-11-13T21:10:14.041Z,1.07
2018-11-13T21:12:42.892Z,2.45
2018-11-13T21:15:13.485Z,2.33
2018-11-13T21:17:41.888Z,1.72
2018-11-13T21:20:12.375Z,2.00
2018-11-13T21:22:47.313Z,1.95
2018-11-13T21:25:18.034Z,2.80
2018-11-13T21:27:46.429Z,2.87
2018-11-13T21:30:17.995Z,2.10
2018-11-13T21:32:46.931Z,1.35
2018-11-13T21:35:15.685Z,1.75
2018-11-13T21:37:45.570Z,1.75
2018-11-13T21:40:15.197Z,2.72
2018-11-13T21:46:43.597Z,2.55
2018-11-13T21:49:11.968Z,2.37
2018-11-13T21:51:40.312Z,3.55
2018-11-13T21:54:08.673Z,2.22
2018-11-13T21:56:37.004Z,2.95
2018-11-13T21:59:05.483Z,2.42
2018-11-13T22:01:33.972Z,2.02
2018-11-13T22:04:02.226Z,3.65
2018-11-13T22:06:30.579Z,2.17
2018-11-13T22:08:58.943Z,2.98
2018-11-13T22:11:27.264Z,5.10
2018-11-13T22:13:55.652Z,1.70
2018-11-13T22:16:24.518Z,2.98
2018-11-13T22:18:53.444Z,1.92
2018-11-13T22:21:21.934Z,2.50
2018-11-13T22:23:50.476Z,3.08
2018-11-13T22:26:18.804Z,3.35
2018-11-13T22:28:47.280Z,4.03
2018-11-13T22:31:15.533Z,7.08
2018-11-13T22:33:43.906Z,6.60
2018-11-13T22:36:12.253Z,3.98
2018-11-13T22:38:40.655Z,3.40
2018-11-13T22:41:08.959Z,4.28
2018-11-13T22:43:37.328Z,4.05
2018-11-13T22:46:12.240Z,2.77
2018-11-13T22:48:40.602Z,2.75
2018-11-13T22:51:09.270Z,3.05
2018-11-13T22:53:37.385Z,3.50
2018-11-13T22:56:05.955Z,4.67
2018-11-13T22:58:34.324Z,2.85
2018-11-13T23:01:03.040Z,3.22
2018-11-13T23:03:31.151Z,3.52
2018-11-13T23:05:59.480Z,2.25
2018-11-13T23:08:27.870Z,4.15
2018-11-13T23:10:56.364Z,3.30
2018-11-13T23:13:24.739Z,3.00
2018-11-13T23:15:53.064Z,3.98
2018-11-13T23:18:21.719Z,2.30
2018-11-13T23:20:50.059Z,2.52
2018-11-13T23:23:19.256Z,2.17
2018-11-13T23:25:47.651Z,2.95
2018-11-13T23:28:16.020Z,2.67
2018-11-13T23:30:45.223Z,3.15
2018-11-13T23:33:13.584Z,2.40
2018-11-13T23:35:41.944Z,2.35
2018-11-13T23:38:10.292Z,3.30
2018-11-13T23:40:38.657Z,4.00
2018-11-13T23:43:06.985Z,2.77
2018-11-13T23:45:35.358Z,3.12
2018-11-13T23:48:03.740Z,3.05
2018-11-13T23:50:32.105Z,2.20
2018-11-13T23:53:00.452Z,2.52
2018-11-13T23:55:28.838Z,2.70
2018-11-13T23:57:57.198Z,1.85
